Time;durP1;ratioP1;P1;durP2;ratioP2;P2;SDS_P1;SDS_P2;PMS_P1;PMS_P2;Temp;Humidity;BMP_temperature;BMP_pressure;BME280_temperature;BME280_humidity;BME280_pressure;Samples;Min_cycle;Max_cycle;Signal;HPM_P1;HPM_P2
2021/07/27 00:00:35;;;;;;;9.07;4.80;;;;;;;15.81;100.00;96685.59;5027224;28;20049;-63
2021/07/27 00:03:01;;;;;;;14.13;5.70;;;;;;;15.60;100.00;96680.94;5025198;28;20090;-63
2021/07/27 00:05:28;;;;;;;12.63;6.05;;;;;;;15.34;100.00;96688.53;5032822;28;20053;-63
2021/07/27 00:07:53;;;;;;;14.85;6.78;;;;;;;15.12;100.00;96675.94;5021641;28;20045;-63
2021/07/27 00:10:19;;;;;;;15.93;7.18;;;;;;;15.00;100.00;96675.19;5028214;28;20036;-64
2021/07/27 00:12:45;;;;;;;9.57;6.65;;;;;;;15.01;100.00;96670.44;5032617;28;20065;-63
2021/07/27 00:15:11;;;;;;;10.48;5.97;;;;;;;15.10;100.00;96682.63;5015298;28;20048;-64
2021/07/27 00:17:36;;;;;;;15.18;8.60;;;;;;;15.21;100.00;96679.84;5026104;28;20267;-64
2021/07/27 00:20:02;;;;;;;10.15;6.35;;;;;;;15.32;100.00;96679.81;5042368;28;20064;-63
2021/07/27 00:22:27;;;;;;;12.02;6.30;;;;;;;15.46;100.00;96667.97;5037478;28;20129;-64
2021/07/27 00:24:53;;;;;;;11.13;6.53;;;;;;;15.53;100.00;96665.19;5042451;28;20039;-64
2021/07/27 00:27:19;;;;;;;14.10;8.30;;;;;;;15.26;100.00;96662.91;5035347;28;20036;-64
2021/07/27 00:29:45;;;;;;;14.23;7.35;;;;;;;15.00;100.00;96658.63;5037868;28;20041;-64
2021/07/27 00:32:11;;;;;;;12.05;6.90;;;;;;;14.78;100.00;96666.13;5017635;28;20068;-64
2021/07/27 00:34:36;;;;;;;20.85;7.45;;;;;;;14.64;100.00;96660.63;5004561;28;20037;-64
2021/07/27 00:37:02;;;;;;;13.57;8.02;;;;;;;14.65;100.00;96670.47;5021406;28;20091;-62
2021/07/27 00:39:28;;;;;;;12.73;7.55;;;;;;;14.70;100.00;96675.59;5018763;28;20045;-64
2021/07/27 00:41:53;;;;;;;16.77;8.13;;;;;;;14.77;100.00;96672.06;5005519;28;20100;-64
2021/07/27 00:44:18;;;;;;;13.07;8.38;;;;;;;14.79;100.00;96670.47;5021727;28;20045;-64
2021/07/27 00:46:44;;;;;;;14.50;7.95;;;;;;;14.83;100.00;96673.22;5008646;28;20128;-64
2021/07/27 00:49:10;;;;;;;12.15;7.53;;;;;;;14.91;100.00;96674.81;5021236;28;20445;-64
2021/07/27 00:51:35;;;;;;;13.05;6.97;;;;;;;14.95;100.00;96675.56;5026141;28;20040;-64
2021/07/27 00:54:01;;;;;;;13.52;7.18;;;;;;;14.91;100.00;96677.56;5028794;28;20068;-64
2021/07/27 00:56:26;;;;;;;15.95;7.22;;;;;;;14.98;100.00;96685.00;5038694;28;20044;-64
2021/07/27 00:58:53;;;;;;;16.52;7.32;;;;;;;15.05;100.00;96685.00;5035485;28;20045;-64
2021/07/27 01:01:19;;;;;;;10.35;5.75;;;;;;;15.11;100.00;96677.91;5019909;28;20502;-64
2021/07/27 01:03:45;;;;;;;12.63;5.78;;;;;;;15.19;100.00;96684.22;5024222;28;20095;-62
2021/07/27 01:06:10;;;;;;;15.32;7.03;;;;;;;15.13;100.00;96675.56;5015454;28;20133;-63
2021/07/27 01:08:38;;;;;;;14.90;6.38;;;;;;;14.83;100.00;96679.50;5020088;28;20114;-62
2021/07/27 01:11:04;;;;;;;18.52;6.90;;;;;;;14.60;100.00;96679.13;5018596;28;20041;-62
2021/07/27 01:13:30;;;;;;;23.35;7.85;;;;;;;14.51;100.00;96685.00;5023680;28;20077;-62
2021/07/27 01:16:01;;;;;;;15.27;7.90;;;;;;;14.43;100.00;96673.19;5047721;28;20033;-62
2021/07/27 01:18:29;;;;;;;15.85;7.80;;;;;;;14.47;100.00;96675.94;5036859;28;20569;-64
2021/07/27 01:39:56;;;;;;;11.63;6.65;;;;;;;14.66;100.00;96669.31;5031275;28;20048;-64
2021/07/27 01:42:22;;;;;;;18.20;6.82;;;;;;;14.61;100.00;96670.47;5033171;28;20521;-63
2021/07/27 01:44:47;;;;;;;11.52;6.90;;;;;;;14.54;100.00;96673.97;5014814;28;20037;-64
2021/07/27 01:47:22;;;;;;;15.13;7.40;;;;;;;14.42;100.00;96677.16;5028476;28;20042;-63
2021/07/27 01:49:49;;;;;;;16.70;7.50;;;;;;;14.36;100.00;96675.94;5030841;28;20132;-64
2021/07/27 01:52:16;;;;;;;9.32;6.25;;;;;;;14.37;100.00;96676.72;5028881;28;20406;-64
2021/07/27 01:54:47;;;;;;;10.38;6.13;;;;;;;14.42;100.00;96679.91;5041191;28;20048;-64
2021/07/27 01:57:13;;;;;;;12.95;6.32;;;;;;;14.51;100.00;96682.25;5035939;28;20040;-64
2021/07/27 01:59:39;;;;;;;11.00;5.85;;;;;;;14.61;100.00;96670.47;5037873;28;20601;-64
2021/07/27 02:02:06;;;;;;;9.80;5.32;;;;;;;14.65;100.00;96670.47;5034825;28;20063;-63
2021/07/27 02:04:32;;;;;;;11.38;5.10;;;;;;;14.76;100.00;96673.22;5039487;28;20102;-64
2021/07/27 02:06:57;;;;;;;10.35;4.70;;;;;;;14.76;100.00;96668.50;5043943;28;20475;-65
2021/07/27 02:09:23;;;;;;;8.95;4.82;;;;;;;14.55;100.00;96672.03;5034216;28;20052;-64
2021/07/27 02:11:53;;;;;;;7.53;4.90;;;;;;;14.42;100.00;96673.59;5020266;28;20139;-63
2021/07/27 02:14:18;;;;;;;10.57;4.93;;;;;;;14.39;100.00;96666.13;5019209;28;20043;-64
2021/07/27 02:16:44;;;;;;;8.50;4.40;;;;;;;14.22;100.00;96664.91;5027800;28;20041;-63
2021/07/27 02:19:09;;;;;;;13.25;5.68;;;;;;;14.17;100.00;96663.34;5023808;28;20045;-62
2021/07/27 02:21:35;;;;;;;10.02;5.25;;;;;;;14.23;100.00;96666.50;5012152;28;20055;-64
2021/07/27 02:24:02;;;;;;;9.80;4.82;;;;;;;14.29;100.00;96668.44;5019314;28;20674;-64
2021/07/27 02:26:28;;;;;;;13.32;5.50;;;;;;;14.38;100.00;96662.56;5027483;28;20102;-63
2021/07/27 02:28:54;;;;;;;12.02;5.13;;;;;;;14.51;100.00;96668.47;5001885;28;20479;-64
2021/07/27 02:31:35;;;;;;;11.70;4.68;;;;;;;14.57;100.00;96660.59;5014314;28;20046;-64
2021/07/27 02:34:02;;;;;;;10.85;4.95;;;;;;;14.43;100.00;96672.41;5027759;28;20037;-64
2021/07/27 02:36:27;;;;;;;6.90;5.00;;;;;;;14.27;100.00;96659.00;5030944;28;20063;-64
2021/07/27 02:38:53;;;;;;;8.73;4.78;;;;;;;14.27;100.00;96672.78;5025671;28;20042;-64
2021/07/27 02:41:21;;;;;;;9.15;4.70;;;;;;;14.32;100.00;96667.66;5025315;28;20052;-64
2021/07/27 02:43:46;;;;;;;8.48;4.55;;;;;;;14.30;100.00;96669.25;5031117;28;20045;-64
2021/07/27 02:46:12;;;;;;;8.73;5.32;;;;;;;14.22;100.00;96662.94;5022160;28;20068;-65
2021/07/27 02:48:41;;;;;;;9.73;5.78;;;;;;;14.01;100.00;96660.94;5022879;28;20067;-64
2021/07/27 02:51:07;;;;;;;8.93;5.85;;;;;;;13.91;100.00;96659.72;5034076;28;20131;-64
2021/07/27 02:53:33;;;;;;;10.60;4.85;;;;;;;13.86;100.00;96665.59;5035062;28;20126;-63
2021/07/27 02:56:01;;;;;;;10.65;5.75;;;;;;;13.89;100.00;96670.34;5042818;28;20460;-64
2021/07/27 02:58:28;;;;;;;6.95;4.57;;;;;;;13.92;100.00;96669.56;5029266;28;20046;-63
2021/07/27 03:00:54;;;;;;;9.70;4.60;;;;;;;14.02;100.00;96675.50;5025942;28;20077;-63
2021/07/27 03:03:19;;;;;;;8.43;5.25;;;;;;;14.01;100.00;96671.16;5020282;28;20042;-63
2021/07/27 03:05:44;;;;;;;8.10;4.80;;;;;;;14.03;100.00;96675.09;5042842;28;20052;-63
2021/07/27 03:08:18;;;;;;;8.43;4.63;;;;;;;14.15;100.00;96684.94;5032635;28;20393;-64
2021/07/27 03:10:43;;;;;;;14.02;4.80;;;;;;;14.24;100.00;96685.38;5047897;28;20037;-62
2021/07/27 03:13:08;;;;;;;6.18;3.88;;;;;;;14.39;100.00;96682.66;5021264;28;20445;-63
2021/07/27 03:15:34;;;;;;;7.32;4.57;;;;;;;14.53;100.00;96688.94;5040639;28;20055;-65
2021/07/27 03:17:59;;;;;;;7.63;3.97;;;;;;;14.64;100.00;96671.63;5034619;28;20041;-62
2021/07/27 03:20:27;;;;;;;8.40;3.83;;;;;;;14.74;100.00;96672.84;5032651;28;20063;-64
2021/07/27 03:22:54;;;;;;;9.52;4.30;;;;;;;14.82;100.00;96674.38;5037651;28;20037;-65
2021/07/27 03:25:20;;;;;;;8.80;3.80;;;;;;;14.80;100.00;96676.75;5015421;28;20075;-64
2021/07/27 03:27:47;;;;;;;26.13;4.32;;;;;;;14.70;100.00;96668.09;5017220;28;20069;-65
2021/07/27 03:30:14;;;;;;;9.85;4.18;;;;;;;14.27;100.00;96675.53;5030093;28;20044;-65
2021/07/27 03:32:40;;;;;;;10.93;5.25;;;;;;;14.05;100.00;96666.47;5034280;28;20033;-64
2021/07/27 03:35:07;;;;;;;8.52;4.95;;;;;;;13.98;100.00;96677.47;5000403;28;20395;-65
2021/07/27 03:37:34;;;;;;;9.25;4.72;;;;;;;13.96;100.00;96675.88;5035510;28;20114;-64
2021/07/27 03:39:59;;;;;;;10.13;5.00;;;;;;;13.99;100.00;96679.00;5029514;28;20094;-64
2021/07/27 03:42:25;;;;;;;11.00;5.13;;;;;;;14.07;100.00;96688.88;5020918;28;20037;-64
2021/07/27 03:44:58;;;;;;;9.43;5.05;;;;;;;14.11;100.00;96684.16;5026638;28;20049;-64
2021/07/27 03:47:24;;;;;;;9.57;5.38;;;;;;;14.20;100.00;96681.03;5019681;28;20057;-64
2021/07/27 03:49:49;;;;;;;12.02;5.75;;;;;;;14.23;100.00;96688.53;5028923;28;20049;-64
2021/07/27 03:52:15;;;;;;;12.93;4.13;;;;;;;14.33;100.00;96682.22;5032196;28;20052;-64
2021/07/27 03:54:41;;;;;;;6.93;4.85;;;;;;;14.51;100.00;96688.56;5028798;28;20549;-64
2021/07/27 03:57:07;;;;;;;10.10;4.78;;;;;;;14.66;100.00;96692.13;5031776;28;20055;-63
2021/07/27 03:59:34;;;;;;;11.43;4.28;;;;;;;14.72;100.00;96695.28;5037871;28;20037;-62
2021/07/27 04:01:59;;;;;;;7.15;4.45;;;;;;;14.81;100.00;96684.63;5031571;28;20037;-64
2021/07/27 04:04:26;;;;;;;9.52;4.40;;;;;;;14.90;100.00;96685.03;5025154;28;20057;-65
2021/07/27 04:06:52;;;;;;;8.27;4.13;;;;;;;14.91;100.00;96678.34;5028280;28;20374;-64
2021/07/27 04:09:19;;;;;;;7.80;3.92;;;;;;;15.03;100.00;96668.06;5034901;28;20486;-63
2021/07/27 04:11:44;;;;;;;7.10;3.97;;;;;;;15.05;100.00;96676.72;5035716;28;20454;-65
2021/07/27 04:14:10;;;;;;;7.35;3.75;;;;;;;15.09;100.00;96672.03;5029279;28;20071;-64
2021/07/27 04:16:39;;;;;;;12.25;4.22;;;;;;;14.72;100.00;96675.97;5028715;28;20139;-64
2021/07/27 04:19:07;;;;;;;7.72;4.68;;;;;;;14.54;100.00;96675.94;5024229;28;20033;-63
2021/07/27 04:21:33;;;;;;;9.25;4.20;;;;;;;14.61;100.00;96687.00;5017570;28;20037;-65
2021/07/27 04:24:00;;;;;;;13.75;4.22;;;;;;;14.76;100.00;96673.22;5037848;28;20052;-65
2021/07/27 04:26:26;;;;;;;13.55;5.10;;;;;;;14.70;100.00;96667.31;5037859;28;20075;-64
2021/07/27 04:28:52;;;;;;;6.90;3.92;;;;;;;14.72;100.00;96670.47;5028747;28;20069;-64
2021/07/27 04:31:19;;;;;;;7.50;4.85;;;;;;;14.64;100.00;96674.41;5032704;28;20418;-63
2021/07/27 04:33:44;;;;;;;17.08;5.28;;;;;;;14.64;100.00;96668.88;5029586;28;20055;-64
2021/07/27 04:36:11;;;;;;;18.50;5.25;;;;;;;14.72;100.00;96673.22;5024180;28;20041;-64
2021/07/27 04:38:36;;;;;;;11.13;4.90;;;;;;;14.89;100.00;96666.91;5031184;28;20485;-64
2021/07/27 04:41:05;;;;;;;11.05;4.63;;;;;;;14.88;100.00;96657.06;5023655;28;20041;-60
2021/07/27 04:43:32;;;;;;;9.43;4.70;;;;;;;14.86;100.00;96658.66;5029774;28;20060;-63
2021/07/27 04:45:58;;;;;;;13.52;5.00;;;;;;;14.75;100.00;96652.34;5036009;28;20072;-64
2021/07/27 04:48:23;;;;;;;8.65;5.22;;;;;;;14.86;100.00;96659.44;5026455;28;20602;-64
2021/07/27 04:50:49;;;;;;;10.00;5.45;;;;;;;15.11;100.00;96653.09;5025249;28;20452;-64
2021/07/27 04:53:20;;;;;;;10.07;4.90;;;;;;;15.29;100.00;96644.78;5029694;28;20099;-62
2021/07/27 04:55:46;;;;;;;9.13;4.80;;;;;;;15.68;100.00;96646.56;5010714;28;20124;-63
2021/07/27 04:58:11;;;;;;;12.38;4.75;;;;;;;15.90;100.00;96646.50;5023568;28;20075;-64
2021/07/27 05:00:36;;;;;;;10.43;5.05;;;;;;;16.19;100.00;96647.13;5034553;28;20056;-64
2021/07/27 05:03:02;;;;;;;9.32;4.93;;;;;;;16.17;100.00;96642.00;5022792;28;20040;-61
2021/07/27 05:05:27;;;;;;;9.98;5.28;;;;;;;16.27;100.00;96642.34;5001223;28;20128;-63
2021/07/27 05:07:53;;;;;;;7.93;3.97;;;;;;;16.39;100.00;96647.38;5006188;28;20040;-64
2021/07/27 05:10:20;;;;;;;6.30;3.88;;;;;;;17.43;100.00;96640.09;5027291;28;20053;-65
2021/07/27 05:12:46;;;;;;;9.98;3.55;;;;;;;17.97;95.83;96643.03;5039728;28;20477;-66
2021/07/27 05:15:12;;;;;;;6.38;3.40;;;;;;;18.41;91.80;96648.72;5029655;28;20056;-64
2021/07/27 05:17:38;;;;;;;6.80;3.15;;;;;;;18.61;89.57;96649.56;5031763;28;20050;-64
2021/07/27 05:20:05;;;;;;;6.30;3.10;;;;;;;18.45;91.21;96647.44;5019077;28;20052;-61
2021/07/27 05:22:32;;;;;;;8.05;3.03;;;;;;;19.07;88.07;96650.03;5022308;28;20048;-64
2021/07/27 05:24:57;;;;;;;4.22;2.75;;;;;;;18.80;88.69;96653.63;5030579;28;20041;-65
2021/07/27 05:27:24;;;;;;;5.90;2.88;;;;;;;20.13;82.21;96651.13;5035080;28;20540;-63
2021/07/27 05:29:53;;;;;;;11.80;3.17;;;;;;;19.95;81.46;96645.94;5033828;28;20045;-64
2021/07/27 05:32:19;;;;;;;5.43;2.45;;;;;;;19.73;81.21;96650.34;5015756;28;20123;-64
2021/07/27 05:34:45;;;;;;;6.55;3.00;;;;;;;19.51;83.54;96647.22;5010840;28;20724;-65
2021/07/27 05:37:10;;;;;;;5.32;3.22;;;;;;;19.29;85.18;96639.31;5023248;28;20060;-64
2021/07/27 05:39:36;;;;;;;8.30;3.47;;;;;;;19.08;88.50;96643.25;5022295;28;20537;-65
2021/07/27 05:42:01;;;;;;;6.80;3.03;;;;;;;18.88;89.06;96651.53;5020607;28;20099;-64
2021/07/27 05:44:27;;;;;;;8.75;3.42;;;;;;;19.19;86.52;96643.06;5027652;28;20049;-64
2021/07/27 05:46:54;;;;;;;6.32;3.25;;;;;;;18.05;93.96;96638.16;5036047;28;20127;-65
2021/07/27 05:49:20;;;;;;;4.90;3.08;;;;;;;18.99;88.07;96643.03;5022909;28;20041;-65
2021/07/27 05:51:49;;;;;;;4.57;2.65;;;;;;;20.53;81.03;96636.28;5011198;28;20069;-64
2021/07/27 05:54:15;;;;;;;6.55;3.28;;;;;;;20.37;81.30;96632.28;5001962;28;20037;-65
2021/07/27 05:56:41;;;;;;;7.00;3.30;;;;;;;20.07;83.27;96625.03;5037639;28;20404;-67
2021/07/27 05:59:06;;;;;;;5.80;2.92;;;;;;;20.56;81.18;96630.66;5029271;28;20041;-63
2021/07/27 06:01:32;;;;;;;8.07;3.45;;;;;;;20.72;78.48;96623.53;5038376;28;20128;-66
2021/07/27 06:03:57;;;;;;;7.20;3.38;;;;;;;20.44;80.15;96628.56;5031247;28;20067;-64
2021/07/27 06:06:23;;;;;;;6.72;3.55;;;;;;;19.81;82.01;96641.47;5018077;28;20042;-66
2021/07/27 06:08:48;;;;;;;6.82;3.80;;;;;;;19.62;83.98;96647.78;5028385;28;20049;-63
2021/07/27 06:11:14;;;;;;;5.10;3.30;;;;;;;21.36;76.54;96646.91;5022660;28;20128;-66
2021/07/27 06:13:39;;;;;;;9.27;3.25;;;;;;;22.09;72.74;96654.84;5028044;28;20091;-63
2021/07/27 06:16:06;;;;;;;7.15;3.30;;;;;;;22.16;71.37;96645.44;5030228;28;20054;-61
2021/07/27 06:18:32;;;;;;;10.48;3.40;;;;;;;21.42;74.78;96644.34;5029523;28;20052;-63
2021/07/27 06:20:57;;;;;;;8.35;3.50;;;;;;;20.25;82.25;96644.84;5034738;28;20133;-65
2021/07/27 06:23:23;;;;;;;7.15;3.88;;;;;;;20.89;80.08;96643.78;5020452;28;20651;-65
2021/07/27 06:25:48;;;;;;;7.82;4.03;;;;;;;21.41;76.92;96639.22;5023598;28;20041;-63
2021/07/27 06:28:14;;;;;;;7.63;5.00;;;;;;;21.39;76.30;96650.81;5029966;28;20045;-65
2021/07/27 06:30:39;;;;;;;8.30;4.50;;;;;;;20.06;83.40;96648.50;5037016;28;20069;-65
2021/07/27 06:33:04;;;;;;;10.63;4.60;;;;;;;19.52;86.98;96649.59;5026509;28;20068;-64
2021/07/27 06:35:30;;;;;;;6.68;4.55;;;;;;;19.67;87.41;96644.50;5032117;28;20081;-65
2021/07/27 06:37:55;;;;;;;8.77;4.10;;;;;;;19.54;88.26;96646.38;5032713;28;20470;-63
2021/07/27 06:40:21;;;;;;;8.23;5.10;;;;;;;19.92;85.39;96649.56;5029309;28;20041;-64
2021/07/27 06:42:46;;;;;;;8.82;4.45;;;;;;;20.19;84.15;96646.59;5042176;28;20060;-65
2021/07/27 06:45:12;;;;;;;9.60;4.25;;;;;;;20.61;82.22;96638.47;5037613;28;20124;-65
2021/07/27 06:47:38;;;;;;;8.15;4.43;;;;;;;19.52;86.24;96646.00;5034084;28;20129;-65
2021/07/27 06:50:03;;;;;;;6.22;4.07;;;;;;;19.62;87.33;96645.78;5020906;28;20038;-61
2021/07/27 06:52:29;;;;;;;7.78;4.38;;;;;;;19.28;88.56;96646.88;5023642;28;20064;-63
2021/07/27 06:54:54;;;;;;;9.80;4.75;;;;;;;19.53;87.58;96647.56;5030990;28;20045;-63
2021/07/27 06:57:20;;;;;;;8.20;4.78;;;;;;;19.86;85.32;96640.97;5024069;28;20059;-63
2021/07/27 06:59:45;;;;;;;8.63;4.97;;;;;;;19.46;88.87;96640.97;5041110;28;20048;-66
2021/07/27 07:02:10;;;;;;;9.75;4.07;;;;;;;21.79;76.35;96636.59;5041143;28;20033;-63
2021/07/27 07:04:36;;;;;;;6.55;3.83;;;;;;;24.00;67.64;96640.88;5042292;28;20053;-63
2021/07/27 07:07:01;;;;;;;6.47;3.65;;;;;;;24.46;67.56;96648.69;5019786;28;20044;-63
2021/07/27 07:09:27;;;;;;;5.57;4.25;;;;;;;22.31;71.81;96645.84;5030123;28;20046;-65
2021/07/27 07:11:52;;;;;;;6.43;3.80;;;;;;;23.67;66.09;96643.28;5031445;28;20040;-63
2021/07/27 07:14:18;;;;;;;8.25;4.72;;;;;;;23.42;66.19;96638.56;5018597;28;20037;-63
2021/07/27 07:16:43;;;;;;;9.10;4.38;;;;;;;22.15;70.90;96643.91;5035912;28;20520;-64
2021/07/27 07:19:09;;;;;;;9.43;4.53;;;;;;;22.33;70.81;96652.53;5022399;28;20136;-63
2021/07/27 07:21:34;;;;;;;6.18;3.65;;;;;;;24.59;64.82;96648.59;5040533;28;20063;-62
2021/07/27 07:23:59;;;;;;;4.65;2.95;;;;;;;26.59;58.10;96641.03;5026234;28;20190;-63
2021/07/27 07:26:25;;;;;;;8.82;3.28;;;;;;;28.25;53.45;96652.28;5037762;28;20052;-64
2021/07/27 07:28:50;;;;;;;8.02;3.88;;;;;;;27.87;52.31;96651.88;5037290;28;20045;-63
2021/07/27 07:31:18;;;;;;;4.82;2.90;;;;;;;28.96;48.61;96650.31;5030776;28;20033;-63
2021/07/27 07:33:44;;;;;;;6.13;3.22;;;;;;;28.71;49.03;96652.53;5029948;28;20041;-65
2021/07/27 07:36:13;;;;;;;6.90;3.55;;;;;;;27.94;50.27;96656.38;5033346;28;20146;-64
2021/07/27 07:38:40;;;;;;;5.05;3.00;;;;;;;28.17;49.76;96647.06;5032320;28;20429;-63
2021/07/27 07:41:09;;;;;;;5.20;3.03;;;;;;;27.58;51.34;96644.16;5030898;28;20041;-63
2021/07/27 07:43:35;;;;;;;4.93;2.85;;;;;;;28.97;48.38;96652.66;5037522;28;20060;-64
2021/07/27 07:46:01;;;;;;;7.82;3.08;;;;;;;29.91;45.53;96647.13;5035402;28;20041;-62
2021/07/27 07:48:27;;;;;;;6.85;2.85;;;;;;;30.48;43.95;96637.09;5035226;28;20106;-62
2021/07/27 07:50:52;;;;;;;7.10;3.15;;;;;;;29.47;46.15;96634.06;5041312;28;20038;-64
2021/07/27 07:53:18;;;;;;;8.25;3.50;;;;;;;28.76;47.18;96637.75;5021232;28;20154;-64
2021/07/27 07:55:43;;;;;;;8.13;3.15;;;;;;;27.65;52.48;96636.13;5039861;28;20041;-63
2021/07/27 07:58:08;;;;;;;5.63;3.05;;;;;;;26.46;52.67;96629.25;5035659;28;20042;-65
2021/07/27 08:00:34;;;;;;;6.72;3.15;;;;;;;25.80;58.10;96629.88;5039866;28;20135;-62
2021/07/27 08:03:03;;;;;;;6.75;3.13;;;;;;;27.53;51.27;96625.94;5040878;28;20077;-63
2021/07/27 08:05:29;;;;;;;5.90;3.63;;;;;;;25.36;58.79;96628.22;5038851;28;20049;-64
2021/07/27 08:07:55;;;;;;;5.55;3.70;;;;;;;24.68;58.45;96631.06;5041390;28;20060;-64
2021/07/27 08:10:21;;;;;;;6.82;4.13;;;;;;;23.79;61.21;96633.25;5034890;28;20064;-64
2021/07/27 08:12:47;;;;;;;7.22;3.28;;;;;;;25.82;56.27;96633.00;5039139;28;20439;-63
2021/07/27 08:15:14;;;;;;;5.93;3.60;;;;;;;26.06;53.48;96631.09;5016123;28;20049;-66
2021/07/27 08:17:41;;;;;;;6.15;3.53;;;;;;;28.08;47.39;96632.31;5036512;28;20543;-64
2021/07/27 08:20:07;;;;;;;5.35;3.00;;;;;;;28.55;47.08;96630.53;5032049;28;20106;-65
2021/07/27 08:22:40;;;;;;;6.20;3.40;;;;;;;29.34;43.92;96628.78;5036258;28;20049;-62
2021/07/27 08:25:07;;;;;;;3.85;2.63;;;;;;;30.34;42.57;96633.13;5015589;28;20071;-65
2021/07/27 08:27:33;;;;;;;12.40;3.80;;;;;;;29.57;43.35;96631.84;5040754;28;20447;-65
2021/07/27 08:29:58;;;;;;;5.32;3.20;;;;;;;29.74;43.18;96630.78;5037779;28;20106;-62
2021/07/27 08:32:24;;;;;;;7.30;3.03;;;;;;;28.05;46.90;96641.72;5035137;28;20540;-64
2021/07/27 08:34:49;;;;;;;6.20;3.30;;;;;;;25.64;53.35;96636.59;5040015;28;20539;-64
2021/07/27 08:37:14;;;;;;;5.20;3.03;;;;;;;25.62;53.82;96639.88;5032677;28;20094;-62
2021/07/27 08:39:40;;;;;;;9.80;3.63;;;;;;;25.64;53.99;96631.00;5036779;28;20119;-64
2021/07/27 08:42:06;;;;;;;5.43;3.00;;;;;;;25.63;54.32;96635.06;5030561;28;20580;-64
2021/07/27 08:44:34;;;;;;;7.22;3.05;;;;;;;26.40;50.49;96625.50;5036377;28;20052;-63
2021/07/27 08:47:06;;;;;;;6.82;3.58;;;;;;;25.73;50.74;96625.38;5038818;28;20032;-64
2021/07/27 08:49:33;;;;;;;6.50;3.30;;;;;;;24.01;56.58;96630.47;5035202;28;20060;-64
2021/07/27 08:52:00;;;;;;;5.30;3.38;;;;;;;25.31;53.97;96628.84;5036113;28;20064;-64
2021/07/27 08:54:26;;;;;;;6.80;3.80;;;;;;;26.53;51.83;96637.31;5026678;28;20052;-61
2021/07/27 08:56:53;;;;;;;7.15;3.53;;;;;;;27.74;48.01;96626.06;5036141;28;20405;-62
2021/07/27 08:59:19;;;;;;;7.13;3.10;;;;;;;27.98;47.42;96623.16;5034851;28;20075;-65
2021/07/27 09:01:45;;;;;;;6.30;3.13;;;;;;;28.52;46.16;96631.47;5041588;28;20044;-63
2021/07/27 09:04:11;;;;;;;6.22;3.45;;;;;;;28.82;47.56;96625.78;5033657;28;20051;-62
2021/07/27 09:06:37;;;;;;;6.55;3.20;;;;;;;28.53;49.31;96625.38;5039671;28;20114;-62
2021/07/27 09:09:09;;;;;;;6.90;3.60;;;;;;;29.08;47.68;96617.41;5036521;28;20508;-60
2021/07/27 09:11:47;;;;;;;5.78;3.60;;;;;;;29.35;46.17;96614.19;5031069;28;20059;-63
2021/07/27 09:14:15;;;;;;;5.40;3.83;;;;;;;28.89;46.28;96609.22;5030433;28;20044;-63
2021/07/27 09:16:48;;;;;;;8.45;3.17;;;;;;;28.20;45.93;96603.84;5055241;22;20095;-61
2021/07/27 09:19:14;;;;;;;4.88;3.05;;;;;;;27.69;49.36;96595.78;5030241;28;20163;-62
2021/07/27 09:21:42;;;;;;;5.30;3.03;;;;;;;27.63;50.13;96587.25;5015267;28;20037;-64
2021/07/27 09:24:10;;;;;;;5.85;2.60;;;;;;;28.87;46.69;96589.22;5026394;28;20147;-63
2021/07/27 09:26:37;;;;;;;6.50;3.67;;;;;;;28.89;47.34;96597.94;5037035;28;20102;-62
2021/07/27 09:29:04;;;;;;;6.90;2.83;;;;;;;29.13;46.13;96591.31;5019324;28;20041;-64
2021/07/27 09:31:30;;;;;;;5.53;3.35;;;;;;;28.69;46.99;96598.72;5039475;28;20640;-62
2021/07/27 09:33:55;;;;;;;5.45;3.20;;;;;;;27.48;51.11;96600.50;5038968;28;20041;-62
2021/07/27 09:36:26;;;;;;;7.93;2.95;;;;;;;28.10;48.77;96598.81;5034129;28;20273;-62
2021/07/27 09:39:00;;;;;;;4.18;2.90;;;;;;;25.91;47.33;96591.69;5015411;28;20056;-63
2021/07/27 09:41:29;;;;;;;4.28;2.53;;;;;;;26.32;48.65;96600.59;5030762;28;20060;-63
2021/07/27 09:43:57;;;;;;;5.30;3.15;;;;;;;25.36;50.50;96598.16;5037682;28;20461;-62
2021/07/27 09:46:26;;;;;;;5.93;3.05;;;;;;;27.02;48.55;96593.97;5033595;28;20723;-60
2021/07/27 09:48:53;;;;;;;;;;;;;;;26.53;48.44;96598.00;5013448;28;20111;-62
2021/07/27 09:51:19;;;;;;;5.85;3.20;;;;;;;27.20;51.40;96597.91;5034304;28;19924;-62
2021/07/27 09:53:46;;;;;;;6.40;3.17;;;;;;;26.81;53.36;96592.25;5039582;28;20049;-62
2021/07/27 09:56:13;;;;;;;6.93;3.03;;;;;;;26.42;55.17;96603.38;5034587;28;20597;-62
2021/07/27 09:58:39;;;;;;;8.48;3.22;;;;;;;25.58;57.44;96594.41;5037819;28;20112;-61
2021/07/27 10:01:10;;;;;;;5.25;3.30;;;;;;;25.55;58.04;96593.31;5033636;28;20053;-63
2021/07/27 10:03:51;;;;;;;4.85;3.38;;;;;;;25.38;58.66;96590.06;5036108;28;20049;-62
2021/07/27 10:06:47;;;;;;;7.30;3.58;;;;;;;25.16;59.07;96589.41;5028609;28;20471;-62
2021/07/27 10:09:22;;;;;;;6.63;3.20;;;;;;;25.61;58.31;96587.09;5030990;28;20412;-62
2021/07/27 10:11:48;;;;;;;9.32;3.83;;;;;;;25.45;59.01;96585.38;5039808;28;20068;-62
2021/07/27 10:14:15;;;;;;;6.70;3.30;;;;;;;25.56;58.55;96586.44;5034211;28;20501;-62
2021/07/27 10:16:42;;;;;;;7.63;3.53;;;;;;;25.64;57.58;96578.50;5036355;28;20049;-63
2021/07/27 10:19:14;;;;;;;7.38;3.38;;;;;;;26.08;56.47;96571.69;5015847;28;20071;-62
2021/07/27 10:21:40;;;;;;;5.93;3.67;;;;;;;25.77;57.39;96572.72;5037059;28;20045;-61
2021/07/27 10:24:24;;;;;;;7.75;4.03;;;;;;;26.12;56.88;96563.88;5038538;28;20041;-62
2021/07/27 10:26:50;;;;;;;4.75;3.50;;;;;;;25.27;59.70;96570.13;5042848;28;20052;-61
2021/07/27 10:29:29;;;;;;;8.23;3.28;;;;;;;25.48;58.96;96567.59;5031832;28;20044;-62
2021/07/27 10:31:55;;;;;;;8.35;4.60;;;;;;;25.65;58.05;96568.84;5039607;28;20037;-63
2021/07/27 10:34:32;;;;;;;7.88;4.60;;;;;;;25.67;57.92;96569.13;5002562;28;20053;-61
2021/07/27 10:37:05;;;;;;;6.63;3.28;;;;;;;25.83;57.24;96584.06;5035449;28;20086;-63
2021/07/27 10:39:30;;;;;;;8.63;4.75;;;;;;;25.79;56.86;96573.00;5037547;28;20045;-62
2021/07/27 10:42:07;;;;;;;6.53;3.88;;;;;;;25.53;57.02;96576.19;5037387;28;20106;-65
2021/07/27 10:44:39;;;;;;;7.22;4.13;;;;;;;25.56;57.54;96578.03;5035106;28;20049;-62
2021/07/27 10:47:05;;;;;;;6.60;3.10;;;;;;;26.05;55.77;96575.44;5026760;28;20053;-62
2021/07/27 10:49:30;;;;;;;6.22;3.28;;;;;;;26.09;55.42;96567.63;5037587;28;20045;-63
2021/07/27 10:52:02;;;;;;;10.27;4.13;;;;;;;26.73;54.60;96566.56;5038480;28;20122;-62
2021/07/27 10:54:32;;;;;;;5.50;3.00;;;;;;;26.48;56.02;96562.16;5035255;28;20059;-63
2021/07/27 10:57:03;;;;;;;7.38;3.10;;;;;;;26.73;54.75;96563.75;5038779;28;20626;-62
2021/07/27 10:59:34;;;;;;;5.80;3.30;;;;;;;26.61;54.01;96565.53;5036096;28;20056;-62
2021/07/27 11:02:00;;;;;;;7.05;3.75;;;;;;;26.95;52.43;96565.47;5037231;28;20068;-62
2021/07/27 11:04:30;;;;;;;10.63;3.33;;;;;;;27.37;50.44;96553.25;5026816;28;20056;-62
2021/07/27 11:07:12;;;;;;;5.82;3.40;;;;;;;26.91;51.70;96556.44;5035360;28;20375;-63
2021/07/27 11:09:56;;;;;;;7.38;3.35;;;;;;;27.21;52.37;96554.50;5039176;28;20045;-63
2021/07/27 11:12:25;;;;;;;6.60;3.50;;;;;;;26.98;52.20;96550.47;5037393;28;20809;-63
2021/07/27 11:15:05;;;;;;;9.98;3.28;;;;;;;27.36;51.29;96552.50;5042228;28;20089;-63
2021/07/27 11:17:30;;;;;;;8.57;3.33;;;;;;;27.49;50.09;96552.22;5040037;28;20052;-63
2021/07/27 11:19:58;;;;;;;8.35;3.35;;;;;;;27.79;50.04;96552.22;5042005;28;20048;-62
2021/07/27 11:22:23;;;;;;;6.45;3.22;;;;;;;28.66;46.68;96546.16;5035638;28;20051;-63
2021/07/27 11:24:49;;;;;;;4.55;2.83;;;;;;;28.32;49.11;96548.47;5042282;28;20052;-63
2021/07/27 11:27:16;;;;;;;5.05;3.38;;;;;;;28.06;48.88;96553.19;5038560;28;20069;-63
2021/07/27 11:29:41;;;;;;;4.82;3.45;;;;;;;26.86;51.88;96547.41;5041146;28;20049;-63
2021/07/27 11:32:15;;;;;;;5.05;3.15;;;;;;;27.03;53.15;96544.94;5032941;28;20728;-62
2021/07/27 11:34:41;;;;;;;8.05;3.33;;;;;;;27.70;50.57;96549.50;5041710;28;20041;-61
2021/07/27 11:37:06;;;;;;;4.20;2.63;;;;;;;27.94;48.85;96546.59;5034793;28;20044;-63
2021/07/27 11:39:41;;;;;;;4.97;3.10;;;;;;;27.90;48.11;96543.19;5041806;28;20055;-61
2021/07/27 11:42:06;;;;;;;9.35;2.97;;;;;;;28.42;46.76;96538.63;5036745;28;20067;-62
2021/07/27 11:44:32;;;;;;;5.00;2.90;;;;;;;28.40;46.62;96541.16;5041759;28;20048;-61